Time;durP1;ratioP1;P1;durP2;ratioP2;P2;SDS_P1;SDS_P2;PMS_P1;PMS_P2;Temp;Humidity;BMP_temperature;BMP_pressure;BME280_temperature;BME280_humidity;BME280_pressure;Samples;Min_cycle;Max_cycle;Signal;HPM_P1;HPM_P2
2022/11/21 00:00:18;;;;;;;21.83;13.90;;;0.00;99.90;;;;;;5073741;28;20076;-33
2022/11/21 00:02:44;;;;;;;21.17;13.37;;;0.00;99.90;;;;;;5073758;28;20048;-32
2022/11/21 00:05:10;;;;;;;23.40;13.97;;;0.00;99.90;;;;;;5073750;28;20109;-33
2022/11/21 00:07:35;;;;;;;24.77;14.13;;;-0.10;99.90;;;;;;5074017;28;20051;-34
2022/11/21 00:10:02;;;;;;;23.63;14.20;;;-0.10;99.90;;;;;;5074548;28;20514;-33
2022/11/21 00:12:27;;;;;;;23.47;15.73;;;-0.10;99.90;;;;;;5074241;28;20048;-34
2022/11/21 00:14:53;;;;;;;22.35;14.75;;;-0.20;99.90;;;;;;5072638;28;20090;-33
2022/11/21 00:17:19;;;;;;;23.73;14.87;;;-0.10;99.90;;;;;;5073585;28;20147;-33
2022/11/21 00:19:44;;;;;;;28.92;16.77;;;-0.10;99.90;;;;;;5073465;28;20036;-34
2022/11/21 00:22:10;;;;;;;27.63;15.90;;;-0.10;99.90;;;;;;5074115;28;20092;-32
2022/11/21 00:24:36;;;;;;;26.90;16.40;;;-0.10;99.90;;;;;;5072545;28;20049;-33
2022/11/21 00:27:01;;;;;;;22.37;15.43;;;-0.10;99.90;;;;;;5073489;28;20105;-33
2022/11/21 00:29:27;;;;;;;28.70;17.23;;;-0.10;99.90;;;;;;5073832;28;20045;-33
2022/11/21 00:31:53;;;;;;;27.50;16.20;;;-0.10;99.90;;;;;;5072285;28;20047;-34
2022/11/21 00:34:19;;;;;;;27.43;17.17;;;-0.10;99.90;;;;;;5073027;28;20395;-33
2022/11/21 00:36:45;;;;;;;26.17;16.37;;;-0.10;99.90;;;;;;5074083;28;20052;-33
2022/11/21 00:39:11;;;;;;;22.83;15.03;;;-0.10;99.90;;;;;;5073365;28;20115;-33
2022/11/21 00:41:36;;;;;;;20.60;14.07;;;-0.10;99.90;;;;;;5073395;28;20463;-33
2022/11/21 00:44:02;;;;;;;22.87;15.37;;;-0.20;99.90;;;;;;5072417;28;20044;-32
2022/11/21 00:46:28;;;;;;;19.73;13.37;;;-0.30;99.90;;;;;;5072867;28;20062;-33
2022/11/21 00:48:53;;;;;;;21.40;13.47;;;-0.40;99.90;;;;;;5073251;28;20052;-33
2022/11/21 00:51:19;;;;;;;21.33;13.77;;;-0.60;99.90;;;;;;5072112;28;20497;-32
2022/11/21 00:53:45;;;;;;;23.13;14.53;;;-0.70;99.90;;;;;;5074132;28;20044;-33
2022/11/21 00:56:11;;;;;;;21.27;12.63;;;-0.90;99.90;;;;;;5075766;28;20405;-32
2022/11/21 00:58:36;;;;;;;21.80;13.87;;;-1.00;99.90;;;;;;5077664;28;20466;-32
2022/11/21 01:01:11;;;;;;;25.00;14.40;;;-1.20;99.90;;;;;;5077080;28;20048;-32
2022/11/21 01:03:39;;;;;;;27.83;16.37;;;-1.30;99.90;;;;;;5077647;28;20390;-32
2022/11/21 01:06:07;;;;;;;24.67;14.97;;;-1.40;99.90;;;;;;5076961;28;20044;-32
2022/11/21 01:08:38;;;;;;;27.23;17.03;;;-1.50;99.90;;;;;;5076935;28;20044;-32
2022/11/21 01:11:05;;;;;;;29.83;16.70;;;-1.70;99.90;;;;;;5076881;28;20482;-32
2022/11/21 01:13:32;;;;;;;26.90;16.63;;;-1.70;99.90;;;;;;5076746;28;20059;-33
2022/11/21 01:16:03;;;;;;;30.13;17.27;;;-1.80;99.90;;;;;;5075814;28;20052;-33
2022/11/21 01:18:29;;;;;;;29.10;16.57;;;-1.90;99.90;;;;;;5076660;28;20143;-33
2022/11/21 01:20:59;;;;;;;31.73;18.17;;;-2.00;99.90;;;;;;5075556;28;20139;-33
2022/11/21 01:23:25;;;;;;;28.70;16.97;;;-2.10;99.90;;;;;;5076940;28;20048;-33
2022/11/21 01:25:50;;;;;;;30.93;16.67;;;-2.10;99.90;;;;;;5076587;28;20558;-33
2022/11/21 01:28:16;;;;;;;31.13;17.80;;;-2.20;99.90;;;;;;5077085;28;20055;-34
2022/11/21 01:30:41;;;;;;;35.73;18.03;;;-2.30;99.90;;;;;;5075802;28;20366;-33
2022/11/21 01:33:10;;;;;;;37.00;20.27;;;-2.40;99.90;;;;;;5077197;28;20374;-32
2022/11/21 01:35:35;;;;;;;41.70;21.63;;;-2.40;99.90;;;;;;5076607;28;20135;-32
2022/11/21 01:38:01;;;;;;;39.20;20.13;;;-2.30;99.90;;;;;;5076252;28;20090;-32
2022/11/21 01:40:27;;;;;;;37.90;21.17;;;-2.30;99.90;;;;;;5076263;28;20037;-32
2022/11/21 01:42:59;;;;;;;40.60;21.97;;;-2.30;99.90;;;;;;5076238;28;20053;-33
2022/11/21 01:46:12;;;;;;;45.63;23.43;;;-2.30;99.90;;;;;;5076857;28;20244;-33
2022/11/21 01:49:02;;;;;;;42.13;20.40;;;-2.30;99.90;;;;;;5062247;28;20048;-32
2022/11/21 01:51:39;;;;;;;42.60;21.80;;;-2.30;99.90;;;;;;5075680;28;20387;-33
2022/11/21 01:54:12;;;;;;;38.53;20.57;;;-2.30;99.90;;;;;;5074895;28;20044;-33
2022/11/21 01:56:55;;;;;;;40.30;21.00;;;-2.30;99.90;;;;;;5075984;28;20048;-32
2022/11/21 01:59:36;;;;;;;42.00;22.10;;;-2.40;99.90;;;;;;5076494;28;20131;-32
2022/11/21 02:02:04;;;;;;;41.90;21.60;;;-2.40;99.90;;;;;;5075996;28;20040;-32
2022/11/21 02:04:32;;;;;;;41.57;20.80;;;-2.50;99.90;;;;;;5074979;28;20123;-31
2022/11/21 02:07:00;;;;;;;40.57;21.17;;;-2.50;99.90;;;;;;5075876;28;20375;-31
2022/11/21 02:09:28;;;;;;;39.70;20.53;;;-2.50;99.90;;;;;;5075849;28;20060;-31
2022/11/21 02:11:57;;;;;;;40.57;21.60;;;-2.50;99.90;;;;;;5075080;28;20055;-32
2022/11/21 02:14:23;;;;;;;40.23;20.77;;;-2.50;99.90;;;;;;5075677;28;20084;-32
2022/11/21 02:16:49;;;;;;;43.37;21.97;;;-2.60;99.90;;;;;;5076495;28;20102;-33
2022/11/21 02:19:26;;;;;;;42.93;22.63;;;-2.60;99.90;;;;;;5075561;28;20166;-32
2022/11/21 02:22:06;;;;;;;40.23;21.87;;;-2.60;99.90;;;;;;5075658;28;20113;-32
2022/11/21 02:24:45;;;;;;;48.57;23.00;;;-2.70;99.90;;;;;;5074716;28;20118;-31
2022/11/21 02:27:11;;;;;;;43.27;22.20;;;-2.70;99.90;;;;;;5076095;28;20105;-32
2022/11/21 02:29:39;;;;;;;45.37;21.97;;;-2.70;99.90;;;;;;5076278;28;20526;-31
2022/11/21 02:32:05;;;;;;;47.77;24.23;;;-2.70;99.90;;;;;;5075401;28;20048;-31
2022/11/21 02:34:32;;;;;;;44.10;23.27;;;-2.80;99.90;;;;;;5075069;28;20563;-32
2022/11/21 02:37:00;;;;;;;44.53;23.20;;;-2.80;99.90;;;;;;5075300;28;20052;-32
2022/11/21 02:39:34;;;;;;;47.70;23.20;;;-2.80;99.90;;;;;;5075227;28;20048;-32
2022/11/21 02:42:10;;;;;;;46.93;23.63;;;-2.90;99.90;;;;;;5074515;28;20055;-32
2022/11/21 02:45:05;;;;;;;48.33;23.57;;;-2.90;99.90;;;;;;5075223;28;20051;-32
2022/11/21 02:47:32;;;;;;;41.90;20.63;;;-2.90;99.90;;;;;;5074908;28;20072;-32
2022/11/21 02:50:23;;;;;;;41.57;22.73;;;-2.90;99.90;;;;;;5075312;28;20051;-32
2022/11/21 02:52:49;;;;;;;68.40;22.67;;;-3.00;99.90;;;;;;5075806;28;20071;-32
2022/11/21 02:55:14;;;;;;;49.70;23.47;;;-3.00;99.90;;;;;;5075492;28;20474;-32
2022/11/21 02:57:41;;;;;;;49.97;24.67;;;-3.00;99.90;;;;;;5073924;28;20083;-32
2022/11/21 03:00:08;;;;;;;55.63;26.37;;;-3.00;99.90;;;;;;5074750;28;20609;-32
2022/11/21 03:02:34;;;;;;;56.10;27.10;;;-2.90;99.90;;;;;;5075012;28;20080;-32
2022/11/21 03:05:00;;;;;;;57.67;25.60;;;-2.90;99.90;;;;;;5074048;28;20074;-32
2022/11/21 03:07:26;;;;;;;63.50;25.63;;;-2.90;99.90;;;;;;5074577;28;20055;-32
2022/11/21 03:09:51;;;;;;;49.83;23.00;;;-2.80;99.90;;;;;;5074568;28;20044;-33
2022/11/21 03:12:17;;;;;;;45.37;22.70;;;-2.80;99.90;;;;;;5074523;28;20493;-32
2022/11/21 03:14:43;;;;;;;46.57;22.50;;;-2.80;99.90;;;;;;5073222;28;20045;-32
2022/11/21 03:17:09;;;;;;;55.13;23.03;;;-2.90;99.90;;;;;;5074440;28;20084;-32
2022/11/21 03:19:34;;;;;;;50.17;24.70;;;-2.90;99.90;;;;;;5073763;28;20051;-32
2022/11/21 03:22:00;;;;;;;52.07;24.80;;;-2.90;99.90;;;;;;5074032;28;20095;-31
2022/11/21 03:24:26;;;;;;;51.43;25.53;;;-3.00;99.90;;;;;;5074310;28;20078;-33
2022/11/21 03:26:51;;;;;;;52.43;25.50;;;-3.00;99.90;;;;;;5074168;28;20132;-32
2022/11/21 03:29:17;;;;;;;58.23;27.07;;;-3.00;99.90;;;;;;5074148;28;20040;-32
2022/11/21 03:31:43;;;;;;;63.87;28.20;;;-3.00;99.90;;;;;;5074134;28;20074;-31
2022/11/21 03:34:08;;;;;;;57.13;27.17;;;-3.00;99.90;;;;;;5074048;28;20048;-32
2022/11/21 03:36:34;;;;;;;60.83;28.07;;;-2.60;99.90;;;;;;5073052;28;20045;-33
2022/11/21 03:39:00;;;;;;;64.10;30.00;;;-3.00;99.90;;;;;;5073900;28;20051;-31
2022/11/21 03:41:28;;;;;;;70.83;31.23;;;-3.10;99.90;;;;;;5073890;28;20048;-31
2022/11/21 03:44:02;;;;;;;57.97;28.10;;;-3.10;99.90;;;;;;5074064;28;20048;-32
2022/11/21 03:46:27;;;;;;;;;;;-3.20;99.90;;;;;;5074607;28;20052;-31
2022/11/21 03:48:53;;;;;;;68.97;28.57;;;-3.20;99.90;;;;;;5074046;28;20449;-32
2022/11/21 03:51:19;;;;;;;68.37;30.40;;;-3.20;99.90;;;;;;5073925;28;20071;-30
2022/11/21 03:53:46;;;;;;;75.97;30.27;;;-3.20;99.90;;;;;;5072939;28;20044;-30
2022/11/21 03:56:12;;;;;;;71.83;30.70;;;-3.20;99.90;;;;;;5073934;28;20049;-30
2022/11/21 03:58:37;;;;;;;78.23;33.63;;;-3.20;99.90;;;;;;5074318;28;20127;-30
2022/11/21 04:01:04;;;;;;;68.90;30.23;;;-3.30;99.90;;;;;;5074392;28;20128;-30
2022/11/21 04:03:30;;;;;;;67.30;31.40;;;-3.30;99.90;;;;;;5073819;28;20048;-32
2022/11/21 04:05:56;;;;;;;82.87;33.73;;;-3.30;99.90;;;;;;5073774;28;20048;-30
2022/11/21 04:08:21;;;;;;;76.93;33.27;;;-3.30;99.90;;;;;;5073355;28;20041;-29
2022/11/21 04:10:52;;;;;;;92.57;37.27;;;-3.30;99.90;;;;;;5073760;28;20438;-29
2022/11/21 04:13:18;;;;;;;83.77;37.23;;;-3.20;99.90;;;;;;5074168;28;20041;-29
2022/11/21 04:15:44;;;;;;;83.23;36.73;;;-3.20;99.90;;;;;;5072950;28;20041;-29
2022/11/21 04:18:11;;;;;;;93.97;37.03;;;-3.20;99.90;;;;;;5073609;28;20054;-29
2022/11/21 04:20:37;;;;;;;89.77;37.83;;;-3.10;99.90;;;;;;5073499;28;20159;-30
2022/11/21 04:23:03;;;;;;;90.70;35.87;;;-3.00;99.90;;;;;;5073575;28;20094;-29
2022/11/21 04:25:29;;;;;;;86.93;36.30;;;-3.00;99.90;;;;;;5073540;28;20051;-30
2022/11/21 04:28:03;;;;;;;72.10;33.17;;;-2.90;99.90;;;;;;5073505;28;20083;-29
2022/11/21 04:30:31;;;;;;;80.70;34.30;;;-2.90;99.90;;;;;;5075137;28;20091;-29
2022/11/21 04:32:56;;;;;;;87.70;35.50;;;-3.00;99.90;;;;;;5076554;28;20052;-29
2022/11/21 04:35:23;;;;;;;82.53;37.00;;;-3.00;99.90;;;;;;5077605;28;20601;-30
2022/11/21 04:37:49;;;;;;;78.70;33.43;;;-2.90;99.90;;;;;;5077531;28;20057;-29
2022/11/21 04:40:15;;;;;;;85.53;38.57;;;-2.90;99.90;;;;;;5077471;28;20063;-29
2022/11/21 04:42:45;;;;;;;91.83;37.73;;;-2.90;99.90;;;;;;5042613;28;20051;-29
2022/11/21 04:45:11;;;;;;;88.97;36.10;;;-2.80;99.90;;;;;;5076453;28;20482;-29
2022/11/21 04:47:38;;;;;;;86.03;37.43;;;-2.80;99.90;;;;;;5077460;28;20064;-29
2022/11/21 04:50:05;;;;;;;87.93;38.03;;;-2.70;99.90;;;;;;5077640;28;20131;-29
2022/11/21 04:52:31;;;;;;;88.33;39.67;;;-2.60;99.90;;;;;;5077312;28;20049;-30
2022/11/21 04:54:57;;;;;;;90.23;40.00;;;-2.50;99.90;;;;;;5076006;28;20094;-29
2022/11/21 04:57:23;;;;;;;100.57;40.20;;;-2.50;99.90;;;;;;5077193;28;20044;-28
2022/11/21 04:59:49;;;;;;;92.40;38.37;;;-2.50;99.90;;;;;;5077049;28;20037;-28
2022/11/21 05:02:15;;;;;;;85.43;35.83;;;-2.60;99.90;;;;;;5077101;28;20044;-28
2022/11/21 05:04:41;;;;;;;86.73;37.07;;;-2.60;99.90;;;;;;5075943;28;20040;-29
2022/11/21 05:07:07;;;;;;;81.87;36.53;;;-2.70;99.90;;;;;;5077014;28;20475;-29
2022/11/21 05:09:32;;;;;;;92.60;35.60;;;-2.80;99.90;;;;;;5076381;28;20044;-28
2022/11/21 05:14:42;;;;;;;76.33;33.07;;;-2.80;99.90;;;;;;5076822;28;20095;-28
2022/11/21 05:17:08;;;;;;;77.17;34.10;;;-3.00;99.90;;;;;;5076813;28;20084;-28
2022/11/21 05:19:34;;;;;;;85.13;34.90;;;-3.00;99.90;;;;;;5075516;28;20485;-28
2022/11/21 05:21:59;;;;;;;87.73;34.47;;;-3.10;99.90;;;;;;5075572;28;20504;-28
2022/11/21 05:24:25;;;;;;;83.80;34.53;;;-3.10;99.90;;;;;;5076701;28;20048;-28
2022/11/21 05:26:51;;;;;;;78.87;34.30;;;-3.10;99.90;;;;;;5076626;28;20044;-28
2022/11/21 05:29:16;;;;;;;87.63;36.57;;;-3.10;99.90;;;;;;5058899;28;20042;-28
2022/11/21 05:31:42;;;;;;;78.33;34.57;;;-3.20;99.90;;;;;;5075723;28;20044;-28
2022/11/21 05:34:08;;;;;;;73.63;35.13;;;-3.20;99.90;;;;;;5076687;28;20541;-28
2022/11/21 05:36:33;;;;;;;81.43;34.20;;;-3.20;99.90;;;;;;5076949;28;20052;-27
2022/11/21 05:38:59;;;;;;;88.73;34.00;;;-3.20;99.90;;;;;;5075171;28;20044;-28
2022/11/21 05:41:25;;;;;;;83.20;35.10;;;-3.30;99.90;;;;;;5076101;28;20078;-27
2022/11/21 05:43:50;;;;;;;85.97;36.17;;;-3.30;99.90;;;;;;5076260;28;20475;-27
2022/11/21 05:46:21;;;;;;;82.57;34.30;;;-3.30;99.90;;;;;;5077005;28;20048;-28
2022/11/21 05:48:48;;;;;;;93.87;37.07;;;-3.30;99.90;;;;;;5076902;28;20136;-28
2022/11/21 05:51:15;;;;;;;86.57;36.13;;;-3.30;99.90;;;;;;5076189;28;20110;-27
2022/11/21 05:53:41;;;;;;;96.27;36.23;;;-3.20;99.90;;;;;;5041626;28;20064;-28
2022/11/21 05:56:10;;;;;;;95.73;39.00;;;-3.20;99.90;;;;;;5075709;28;20504;-28
2022/11/21 05:58:36;;;;;;;96.03;39.13;;;-3.20;99.90;;;;;;5074813;28;20084;-28
2022/11/21 06:01:02;;;;;;;101.83;39.70;;;-3.20;99.90;;;;;;5075060;28;20083;-29
2022/11/21 06:03:31;;;;;;;92.33;36.43;;;-3.30;99.90;;;;;;5076568;28;20102;-28
2022/11/21 06:06:04;;;;;;;88.30;37.67;;;-3.30;99.90;;;;;;5076568;28;20430;-28
2022/11/21 06:08:39;;;;;;;96.05;37.85;;;-3.40;99.90;;;;;;5076237;28;20044;-28
2022/11/21 06:11:06;;;;;;;89.23;37.60;;;-3.40;99.90;;;;;;5075867;28;20044;-28
2022/11/21 06:13:32;;;;;;;96.27;39.47;;;-3.40;99.90;;;;;;5076242;28;20079;-28
2022/11/21 06:16:03;;;;;;;99.17;37.77;;;-3.40;99.90;;;;;;5075755;28;20049;-28
2022/11/21 06:18:34;;;;;;;97.37;39.13;;;-3.40;99.90;;;;;;5075671;28;20048;-28
2022/11/21 06:21:08;;;;;;;96.17;38.20;;;-3.40;99.90;;;;;;5075712;28;20048;-29
2022/11/21 06:23:35;;;;;;;92.47;36.67;;;-3.50;99.90;;;;;;5076501;28;20119;-28
2022/11/21 06:26:04;;;;;;;100.70;38.80;;;-3.50;99.90;;;;;;5076126;28;20045;-28
2022/11/21 06:28:37;;;;;;;83.63;34.67;;;-3.50;99.90;;;;;;5075522;28;20081;-28
2022/11/21 06:31:08;;;;;;;81.60;33.13;;;-3.60;99.90;;;;;;5076117;28;20084;-28
2022/11/21 06:33:35;;;;;;;79.33;33.77;;;-3.70;99.90;;;;;;5076267;28;20125;-28
2022/11/21 06:36:12;;;;;;;91.97;34.17;;;-3.80;99.90;;;;;;5075336;28;20044;-29
2022/11/21 06:38:38;;;;;;;95.60;35.77;;;-3.70;99.90;;;;;;5075273;28;20052;-28
2022/11/21 06:41:06;;;;;;;91.53;34.63;;;-3.70;99.90;;;;;;5074951;28;20049;-28
2022/11/21 06:43:32;;;;;;;91.23;36.17;;;-3.70;99.90;;;;;;5075187;28;20048;-28
2022/11/21 06:45:57;;;;;;;99.13;37.10;;;-3.60;99.90;;;;;;5075374;28;20119;-29
2022/11/21 06:48:24;;;;;;;99.33;39.47;;;-3.50;99.90;;;;;;5074939;28;20146;-28
2022/11/21 06:50:50;;;;;;;107.70;40.53;;;-3.50;99.90;;;;;;5057392;28;20044;-28
2022/11/21 06:53:15;;;;;;;112.40;39.07;;;-3.50;99.90;;;;;;5074197;28;20048;-29
2022/11/21 06:55:41;;;;;;;103.03;38.13;;;-3.50;99.90;;;;;;5075248;28;20051;-28
2022/11/21 06:58:07;;;;;;;103.73;39.37;;;-2.80;99.90;;;;;;5074927;28;20048;-29
2022/11/21 07:00:33;;;;;;;117.97;41.50;;;-3.40;99.90;;;;;;5074737;28;20493;-30
2022/11/21 07:03:00;;;;;;;107.93;40.27;;;-3.20;99.90;;;;;;5074665;28;20048;-28
2022/11/21 07:05:26;;;;;;;104.80;37.77;;;-3.40;99.90;;;;;;5074076;28;20050;-28
2022/11/21 07:08:00;;;;;;;106.47;40.73;;;-3.50;99.90;;;;;;5074709;28;20347;-28
2022/11/21 07:10:26;;;;;;;111.97;40.57;;;-3.50;99.90;;;;;;5073991;28;20094;-28
2022/11/21 07:16:08;;;;;;;114.57;43.03;;;-3.50;99.90;;;;;;5072231;28;20155;-29
2022/11/21 07:18:34;;;;;;;117.47;41.20;;;-3.50;99.90;;;;;;5072062;28;20505;-28
2022/11/21 07:21:02;;;;;;;106.60;40.23;;;-3.50;99.90;;;;;;5072754;28;20059;-28
2022/11/21 07:23:31;;;;;;;109.97;39.77;;;-3.50;99.90;;;;;;5075000;28;20051;-28
2022/11/21 07:26:01;;;;;;;115.77;41.70;;;-3.50;99.90;;;;;;5073601;28;20048;-29
2022/11/21 07:28:28;;;;;;;106.17;39.77;;;-3.50;99.90;;;;;;5074352;28;20395;-29
2022/11/21 07:30:58;;;;;;;104.90;38.93;;;-3.50;99.90;;;;;;5074212;28;20078;-29
2022/11/21 07:33:24;;;;;;;103.60;40.33;;;-3.50;99.90;;;;;;5074738;28;20045;-28
2022/11/21 07:35:49;;;;;;;111.07;42.40;;;-3.40;99.90;;;;;;5073967;28;20081;-28
2022/11/21 07:38:15;;;;;;;109.90;39.93;;;-3.40;99.90;;;;;;5074201;28;20040;-29
2022/11/21 07:40:41;;;;;;;113.97;41.00;;;-3.40;99.90;;;;;;5074028;28;20496;-28
2022/11/21 07:43:09;;;;;;;109.17;43.17;;;-3.40;99.90;;;;;;5074886;28;20045;-29
2022/11/21 07:45:35;;;;;;;110.20;41.20;;;-3.30;99.90;;;;;;5073002;28;20044;-29
2022/11/21 07:48:03;;;;;;;108.03;41.47;;;-3.20;99.90;;;;;;5073712;28;20070;-29
2022/11/21 07:50:29;;;;;;;121.90;41.63;;;-3.10;99.90;;;;;;5073703;28;20506;-30
2022/11/21 07:53:03;;;;;;;121.67;42.13;;;-3.00;99.90;;;;;;5073917;28;20052;-28
2022/11/21 07:55:29;;;;;;;107.57;43.03;;;-2.90;99.90;;;;;;5073928;28;20055;-28
2022/11/21 07:58:02;;;;;;;114.27;44.67;;;-2.80;99.90;;;;;;5074164;28;20456;-29
2022/11/21 08:00:29;;;;;;;124.13;44.63;;;-2.80;99.90;;;;;;5072691;28;20094;-29
2022/11/21 08:02:55;;;;;;;125.93;45.77;;;-2.70;99.90;;;;;;5073821;28;20048;-29
2022/11/21 08:05:21;;;;;;;127.50;45.87;;;-2.70;99.90;;;;;;5074513;28;20049;-29
2022/11/21 08:07:47;;;;;;;130.60;46.77;;;-2.50;99.90;;;;;;5072805;28;20368;-29
2022/11/21 08:10:14;;;;;;;132.03;46.53;;;-2.40;99.90;;;;;;5073756;28;20037;-29
2022/11/21 08:12:39;;;;;;;126.97;48.13;;;-2.40;99.90;;;;;;5074031;28;20105;-29
2022/11/21 08:15:06;;;;;;;127.80;46.17;;;-2.30;99.90;;;;;;5072418;28;20131;-29
2022/11/21 08:17:32;;;;;;;125.17;47.30;;;-2.20;99.90;;;;;;5074421;28;20051;-29
2022/11/21 08:20:01;;;;;;;125.20;47.93;;;-2.10;99.90;;;;;;5072473;28;20174;-29
2022/11/21 08:22:27;;;;;;;131.73;49.07;;;-2.00;99.90;;;;;;5074149;28;20367;-29
2022/11/21 08:24:53;;;;;;;113.20;46.33;;;-1.90;99.90;;;;;;5073548;28;20044;-30
2022/11/21 08:27:20;;;;;;;115.73;45.70;;;-1.70;99.90;;;;;;5056185;28;20054;-29
2022/11/21 08:29:47;;;;;;;120.27;45.83;;;-1.50;99.90;;;;;;5073534;28;20132;-29
2022/11/21 08:32:13;;;;;;;115.10;45.17;;;-1.40;99.90;;;;;;5073575;28;20044;-30
2022/11/21 08:34:38;;;;;;;108.67;43.80;;;-1.20;99.90;;;;;;5073535;28;20129;-29
2022/11/21 08:37:04;;;;;;;105.90;43.70;;;-1.10;99.90;;;;;;5073995;28;20471;-29
2022/11/21 08:39:30;;;;;;;104.43;44.83;;;-1.10;99.90;;;;;;5073391;28;20051;-29
2022/11/21 08:42:03;;;;;;;102.77;44.17;;;-1.00;99.90;;;;;;5073420;28;20047;-29
2022/11/21 08:44:29;;;;;;;104.45;42.42;;;-0.90;99.90;;;;;;5073462;28;20049;-29
2022/11/21 08:46:55;;;;;;;89.87;39.07;;;-0.90;99.90;;;;;;5072858;28;20594;-29
2022/11/21 08:49:21;;;;;;;87.83;40.20;;;-0.80;99.90;;;;;;5073897;28;20098;-29
2022/11/21 08:51:50;;;;;;;83.83;38.33;;;-0.80;99.90;;;;;;5073596;28;20045;-29
2022/11/21 08:54:21;;;;;;;84.67;38.73;;;-0.70;99.90;;;;;;5073862;28;20498;-29
2022/11/21 08:56:47;;;;;;;80.33;37.07;;;-0.60;99.90;;;;;;5073864;28;20044;-30
2022/11/21 08:59:14;;;;;;;76.97;36.13;;;-0.60;99.90;;;;;;5073169;28;20079;-31
2022/11/21 09:01:39;;;;;;;72.03;35.07;;;-0.50;99.90;;;;;;5073233;28;20413;-30
2022/11/21 09:04:06;;;;;;;72.33;35.47;;;-0.50;99.90;;;;;;5073179;28;20059;-31
2022/11/21 09:06:32;;;;;;;70.07;34.40;;;-0.40;99.90;;;;;;5073065;28;20047;-30
2022/11/21 09:08:57;;;;;;;74.57;33.03;;;-0.40;99.90;;;;;;5072131;28;20136;-29
2022/11/21 09:11:26;;;;;;;66.77;31.10;;;-0.40;99.90;;;;;;5073612;28;20119;-30
2022/11/21 09:19:22;;;;;;;62.60;30.37;;;-0.20;99.90;;;;;;5075727;28;20048;-30
2022/11/21 09:21:51;;;;;;;60.77;31.23;;;-0.20;99.90;;;;;;5077008;28;20094;-30
2022/11/21 09:24:17;;;;;;;60.47;32.13;;;-0.10;99.90;;;;;;5076732;28;20080;-30
2022/11/21 09:26:43;;;;;;;59.53;31.70;;;0.00;99.90;;;;;;5075539;28;20040;-31
2022/11/21 09:29:10;;;;;;;54.63;28.73;;;0.00;99.90;;;;;;5076678;28;20067;-30
2022/11/21 09:31:36;;;;;;;53.67;29.80;;;0.10;99.90;;;;;;5076651;28;20093;-30
2022/11/21 09:34:03;;;;;;;52.87;28.80;;;0.10;99.90;;;;;;5076564;28;20070;-30
2022/11/21 09:36:28;;;;;;;55.50;29.07;;;0.10;99.90;;;;;;5076377;28;20053;-30
2022/11/21 09:38:54;;;;;;;51.90;28.20;;;0.20;99.90;;;;;;5076960;28;20062;-31
2022/11/21 09:44:47;;;;;;;48.17;25.67;;;0.30;99.90;;;;;;5076434;28;20052;-30
2022/11/21 09:47:29;;;;;;;46.10;26.03;;;0.30;99.90;;;;;;5076523;28;20060;-31
2022/11/21 09:50:04;;;;;;;46.40;26.42;;;0.40;99.90;;;;;;5076261;28;20110;-30
2022/11/21 09:52:41;;;;;;;43.73;25.63;;;0.50;99.90;;;;;;5076320;28;20136;-31
2022/11/21 09:55:35;;;;;;;45.17;25.43;;;0.50;99.90;;;;;;5076469;28;20456;-30
2022/11/21 09:58:05;;;;;;;46.03;25.50;;;0.60;99.90;;;;;;5075714;28;20095;-31
2022/11/21 10:00:31;;;;;;;42.07;25.27;;;0.80;99.90;;;;;;5075098;28;20051;-30
2022/11/21 10:02:58;;;;;;;45.53;25.67;;;0.80;99.90;;;;;;5076072;28;20047;-31
2022/11/21 10:05:42;;;;;;;43.80;25.40;;;0.80;99.90;;;;;;5076260;28;20055;-31
2022/11/21 10:08:18;;;;;;;43.95;24.70;;;0.90;99.90;;;;;;5076583;28;20056;-31
2022/11/21 10:10:53;;;;;;;40.42;23.90;;;1.00;99.90;;;;;;5076788;28;20041;-32
2022/11/21 10:13:36;;;;;;;40.63;24.15;;;1.00;99.90;;;;;;5075703;28;20045;-33
2022/11/21 10:16:37;;;;;;;39.00;22.77;;;1.00;99.90;;;;;;5075841;28;20372;-32
2022/11/21 10:19:14;;;;;;;36.55;21.42;;;1.00;99.90;;;;;;5075699;28;20044;-32
2022/11/21 10:21:55;;;;;;;38.38;21.80;;;1.00;99.90;;;;;;5076040;28;20056;-33
2022/11/21 10:24:39;;;;;;;34.03;20.80;;;1.00;99.90;;;;;;5062098;28;20060;-33
2022/11/21 10:27:40;;;;;;;34.80;21.17;;;0.90;99.90;;;;;;5055097;28;20088;-32
2022/11/21 10:30:17;;;;;;;36.33;21.77;;;0.80;99.90;;;;;;5056362;28;20067;-32
2022/11/21 10:32:47;;;;;;;33.60;20.50;;;0.80;99.90;;;;;;5055787;28;20045;-32
2022/11/21 10:35:35;;;;;;;36.53;21.00;;;0.70;99.90;;;;;;5055544;28;20056;-33
2022/11/21 10:38:12;;;;;;;35.35;21.17;;;0.60;99.90;;;;;;5055371;28;20407;-32
2022/11/21 10:41:00;;;;;;;37.20;22.23;;;0.50;99.90;;;;;;5055567;28;20049;-33
2022/11/21 10:46:56;;;;;;;39.47;22.38;;;0.50;99.90;;;;;;5055047;28;20493;-33
2022/11/21 10:49:24;;;;;;;38.60;23.00;;;0.50;99.90;;;;;;5055183;28;20111;-33
2022/11/21 10:52:00;;;;;;;43.70;24.23;;;0.50;99.90;;;;;;5055095;28;20051;-33
2022/11/21 10:54:32;;;;;;;39.93;23.63;;;0.70;99.90;;;;;;5055663;28;20053;-33
2022/11/21 10:57:13;;;;;;;42.17;23.80;;;0.80;99.90;;;;;;5054663;28;20372;-33
2022/11/21 10:59:39;;;;;;;38.03;23.25;;;0.90;99.90;;;;;;5055518;28;20045;-34
2022/11/21 11:02:14;;;;;;;41.05;23.60;;;1.20;99.90;;;;;;5054895;28;20482;-34
2022/11/21 11:04:40;;;;;;;32.72;21.15;;;1.60;99.90;;;;;;5054824;28;20059;-36
2022/11/21 11:07:24;;;;;;;35.20;23.30;;;1.80;99.90;;;;;;5054105;28;20044;-36
2022/11/21 11:09:54;;;;;;;31.23;19.67;;;2.00;99.90;;;;;;5054701;28;20052;-35
2022/11/21 11:15:28;;;;;;;26.10;17.23;;;2.30;99.90;;;;;;5012714;28;20054;-38
2022/11/21 11:18:00;;;;;;;28.65;17.77;;;2.60;99.90;;;;;;5040476;28;20056;-38
2022/11/21 11:20:42;;;;;;;27.95;18.85;;;2.80;99.90;;;;;;5053319;28;20498;-36
2022/11/21 11:23:24;;;;;;;25.80;16.40;;;3.00;99.90;;;;;;5055118;28;20048;-37
2022/11/21 11:25:57;;;;;;;24.08;15.27;;;3.10;99.90;;;;;;5055088;28;20045;-35
2022/11/21 11:28:34;;;;;;;26.35;16.55;;;3.10;99.90;;;;;;5054404;28;20568;-36
2022/11/21 11:31:00;;;;;;;23.83;15.63;;;3.80;99.90;;;;;;5054420;28;20057;-35
2022/11/21 11:33:36;;;;;;;22.27;15.45;;;3.80;99.90;;;;;;5054368;28;20049;-35
2022/11/21 11:36:43;;;;;;;22.90;16.52;;;3.30;99.90;;;;;;5054333;28;20051;-36
2022/11/21 11:39:45;;;;;;;23.00;14.25;;;3.60;99.90;;;;;;5051662;28;20045;-33
2022/11/21 11:47:53;;;;;;;21.88;14.98;;;4.10;99.90;;;;;;5054098;28;20392;-34
2022/11/21 11:50:25;;;;;;;24.70;13.68;;;4.10;99.90;;;;;;5054043;28;20495;-33
2022/11/21 11:53:12;;;;;;;19.23;13.77;;;4.40;99.90;;;;;;5053999;28;20471;-33
2022/11/21 11:55:56;;;;;;;18.30;13.48;;;4.30;99.90;;;;;;5053958;28;20102;-33
2022/11/21 11:58:46;;;;;;;18.73;13.27;;;4.40;1.00;;;;;;5053972;28;20041;-33
2022/11/21 12:01:29;;;;;;;18.98;12.98;;;4.50;99.90;;;;;;5053384;28;20060;-33
2022/11/21 12:04:09;;;;;;;19.10;13.57;;;4.50;99.90;;;;;;5054755;28;20041;-33
2022/11/21 12:06:58;;;;;;;17.33;12.55;;;4.20;99.90;;;;;;5054362;28;20092;-32
2022/11/21 12:09:39;;;;;;;19.67;13.48;;;4.00;99.90;;;;;;5043159;28;20065;-33
2022/11/21 12:12:28;;;;;;;17.45;12.73;;;3.80;1.00;;;;;;5053733;28;20510;-33
2022/11/21 12:18:14;;;;;;;18.90;13.43;;;3.40;1.00;;;;;;5054244;28;20053;-33
2022/11/21 12:21:08;;;;;;;19.23;13.40;;;3.20;1.00;;;;;;5052343;28;20049;-33
2022/11/21 12:23:45;;;;;;;20.25;14.10;;;3.10;20.70;;;;;;5054493;28;20170;-33
2022/11/21 12:26:19;;;;;;;22.17;13.48;;;3.10;99.90;;;;;;5052352;28;20131;-33
2022/11/21 12:29:19;;;;;;;20.13;13.55;;;3.10;99.90;;;;;;5053145;28;20051;-33
2022/11/21 12:32:15;;;;;;;20.63;13.30;;;3.10;99.90;;;;;;5041617;28;20408;-34
2022/11/21 12:34:56;;;;;;;18.90;12.60;;;3.10;99.90;;;;;;5053485;28;20132;-34
2022/11/21 12:37:32;;;;;;;18.92;13.15;;;3.10;99.90;;;;;;5053398;28;20045;-33
2022/11/21 12:39:57;;;;;;;20.42;13.88;;;3.10;99.90;;;;;;5053671;28;20041;-33
2022/11/21 12:42:49;;;;;;;18.30;12.68;;;3.10;99.90;;;;;;5053688;28;20086;-33
2022/11/21 12:45:32;;;;;;;16.38;12.35;;;3.10;99.90;;;;;;5043654;28;20054;-34
2022/11/21 12:57:01;;;;;;;21.25;12.23;;;3.30;99.90;;;;;;5057617;28;20049;-33
2022/11/21 12:59:30;;;;;;;46.45;27.30;;;3.40;99.90;;;;;;5057782;28;20051;-33
2022/11/21 13:02:14;;;;;;;28.00;18.20;;;3.50;99.90;;;;;;5057114;28;20052;-34
2022/11/21 13:04:41;;;;;;;19.77;13.85;;;3.40;99.90;;;;;;5057066;28;20053;-33
2022/11/21 13:07:07;;;;;;;17.13;11.05;;;3.50;99.90;;;;;;5057058;28;20059;-35
2022/11/21 13:09:44;;;;;;;19.70;12.80;;;3.40;99.90;;;;;;5057016;28;20041;-33
2022/11/21 13:12:20;;;;;;;47.20;26.13;;;3.40;99.90;;;;;;5057002;28;20049;-33
2022/11/21 13:14:55;;;;;;;40.75;24.27;;;3.40;99.90;;;;;;5057211;28;20048;-33
2022/11/21 13:17:24;;;;;;;48.88;28.00;;;3.30;99.90;;;;;;5056942;28;20049;-32
2022/11/21 13:20:14;;;;;;;61.65;34.45;;;3.30;99.90;;;;;;5055680;28;20056;-33
2022/11/21 13:22:40;;;;;;;24.75;16.80;;;3.30;99.90;;;;;;5057451;28;20057;-33